• Join FlightAware (Why Join?)
  • Login
  • US Flag 
05:51AM EDT


 

Airport Tracker/Info


-or-


 

Live Flight TrackerFlight Track Log ✈ JAL8102 ✈ 26-Mar-2012 ✈ KPAE - RJTT / HND

Flight Track Log - Related Links

Times and Time Zones

All times are in EDT time to prevent confusion due to time zone crossing. See the JAL8102 flight status page for this flight to view local times or setup timezone preferences in your user account.

Time Position Orientation Groundspeed Altitude Reporting Facility
EDT Latitude Longitude Course Direction KTS MPH feet Rate Location/Type
08:43PM 47.8939 -122.2867 178° South 182 209 1,100  Level Seattle Center
08:44PM 47.8667 -122.2853 182° South 161 185 2,700 1,380 Climbing Seattle Center
08:45PM 47.8075 -122.2883 244° Southwest 228 262 3,400 600 Climbing Seattle Center
08:46PM 47.7764 -122.3850 255° West 252 290 4,000 1,440 Climbing Seattle Center
08:47PM 47.7531 -122.5150 273° West 259 298 7,000 2,640 Climbing Seattle Center
08:48PM 47.7569 -122.6322 285° West 271 312 10,200 2,340 Climbing Seattle Center
08:49PM 47.7800 -122.7572 293° West 335 386 11,800 2,100 Climbing Seattle Center
08:50PM 47.8133 -122.8758 293° West 356 410 14,500 2,700 Climbing Seattle Center
08:51PM 47.8531 -123.0150 294° West 367 422 17,400 2,940 Climbing Seattle Center
08:52PM 47.9022 -123.1836 292° West 373 429 20,600 2,700 Climbing Seattle Center
08:53PM 47.9411 -123.3300 294° West 381 438 23,000 2,220 Climbing Seattle Center
08:54PM 47.9844 -123.4747 293° West 386 444 25,200 1,800 Climbing Seattle Center
08:55PM 48.0261 -123.6211 292° West 387 445 26,700 1,500 Climbing Seattle Center
08:56PM 48.0678 -123.7756 293° West 399 459 28,300 1,440 Climbing Seattle Center
08:57PM 48.1131 -123.9347 301° West 412 474 29,700 1,320 Climbing Seattle Center
08:58PM 48.1733 -124.0878 302° West 428 493 31,000 1,140 Climbing Seattle Center
08:59PM 48.2394 -124.2442 302° West 449 517 32,100 1,140 Climbing Seattle Center
09:00PM 48.3050 -124.4036 302° West 450 518 33,300 1,080 Climbing Seattle Center
09:01PM 48.3772 -124.5808 297° West 460 529 34,400 1,140 Climbing Seattle Center
09:02PM 48.4167 -124.7000 299° West 470 541 35,200 960 Climbing Vancouver Center
09:03PM 48.4833 -124.8833 304° West 470 541 36,000 780 Climbing Vancouver Center
09:04PM 48.5500 -125.0333 299° West 480 552 36,800 900 Climbing Vancouver Center
09:05PM 48.6167 -125.2167 299° West 480 552 37,800 600 Climbing Vancouver Center
09:06PM 48.6833 -125.4000 301° West 480 552 38,000 60 Climbing Vancouver Center
09:07PM 48.7500 -125.5667 301° West 490 564 38,000  Level Vancouver Center
09:08PM 48.8167 -125.7333 297° West 480 552 38,000  Level Vancouver Center
09:09PM 48.8833 -125.9333 304° West 480 552 38,000  Level Vancouver Center
09:10PM 48.9500 -126.0833 305° West 480 552 38,000  Level Vancouver Center
09:11PM 49.0333 -126.2667 293° West 490 564 38,000  Level Vancouver Center
09:12PM 49.0833 -126.4500 299° West 480 552 38,000  Level Vancouver Center
09:13PM 49.1500 -126.6333 305° West 490 564 38,000  Level Vancouver Center
09:14PM 49.2333 -126.8167 304° West 490 564 38,000  Level Vancouver Center
09:15PM 49.3000 -126.9667 293° West 490 564 38,000  Level Vancouver Center
09:16PM 49.3500 -127.1500 303° West 490 564 38,000  Level Vancouver Center
09:17PM 49.4333 -127.3500 299° West 490 564 38,000  Level Vancouver Center
09:18PM 49.5000 -127.5333 293° West 490 564 38,000  Level Vancouver Center
09:19PM 49.5500 -127.7167 305° West 490 564 38,000  Level Vancouver Center
09:20PM 49.6333 -127.9000 299° West 490 564 38,000  Level Vancouver Center
09:21PM 49.7000 -128.0833 293° West 490 564 38,000  Level Vancouver Center
09:22PM 49.7500 -128.2667 308° West 490 564 38,000  Level Vancouver Center
09:23PM 49.8333 -128.4333 293° West 490 564 38,000  Level Vancouver Center
09:24PM 49.8833 -128.6167 297° West 490 564 38,000  Level Vancouver Center
09:25PM 49.9500 -128.8167 300° West 480 552 38,000  Level Vancouver Center
09:26PM 50.0167 -129.0000 300° West 490 564 38,000  Level Vancouver Center
09:27PM 50.0833 -129.1833 291° West 490 564 38,000  Level Vancouver Center
09:28PM 50.1333 -129.3833 305° West 490 564 38,000  Level Vancouver Center
09:29PM 50.2167 -129.5667 291° West 490 564 38,000  Level Vancouver Center
09:30PM 50.2667 -129.7667 306° West 500 575 38,000  Level Vancouver Center
09:31PM 50.3500 -129.9500 291° West 500 575 38,000  Level Vancouver Center
09:32PM 50.4000 -130.1500 300° West 500 575 38,000  Level Vancouver Center
09:33PM 50.4667 -130.3333 298° West 500 575 38,000  Level Vancouver Center
09:34PM 50.5333 -130.5333 293° West 500 575 38,000  Level Vancouver Center
09:35PM 50.5833 -130.7167 303° West 500 575 38,000  Level Vancouver Center
09:36PM 50.6667 -130.9167 292° West 500 575 38,000  Level Vancouver Center
09:37PM 50.7167 -131.1167 300° West 500 575 38,000  Level Vancouver Center
09:38PM 50.7833 -131.3000 292° West 500 575 38,000  Level Vancouver Center
09:39PM 50.8333 -131.5000 298° West 490 564 38,000  Level Vancouver Center
09:40PM 50.9000 -131.7000 298° West 490 564 38,000  Level Vancouver Center
09:41PM 50.9667 -131.9000 293° West 490 564 38,000  Level Vancouver Center
09:42PM 51.0167 -132.0833 298° West 500 575 38,000  Level Vancouver Center
09:43PM 51.0833 -132.2833 292° West 500 575 38,000  Level Vancouver Center
09:44PM 51.1333 -132.4833 292° West 500 575 38,000  Level Vancouver Center
09:45PM 51.1833 -132.6833 304° West 500 575 38,000  Level Vancouver Center
09:46PM 51.2667 -132.8833 289° West 510 587 38,000  Level Vancouver Center
09:47PM 51.3167 -133.1167 298° West 510 587 38,000  Level Vancouver Center
09:48PM 51.3833 -133.3167 292° West 510 587 38,000  Level Vancouver Center
09:49PM 51.4333 -133.5167 298° West 510 587 38,000  Level Vancouver Center
09:50PM 51.5000 -133.7167 292° West 500 575 38,000  Level Vancouver Center
09:51PM 51.5500 -133.9167 298° West 510 587 38,000  Level Vancouver Center
09:52PM 51.6167 -134.1167 292° West 500 575 38,000  Level Vancouver Center
09:53PM 51.6667 -134.3167 298° West 500 575 38,000  Level Vancouver Center
09:54PM 51.7333 -134.5167 284° West 500 575 38,000  Level Vancouver Center
09:55PM 51.7667 -134.7333 295° West 500 575 38,000  Level Vancouver Center
09:56PM 51.8333 -134.9667 296° West 500 575 38,000  Level Vancouver Center
09:57PM 51.8833 -135.1333 295° West 500 575 38,000  Level Vancouver Center
09:58PM 51.9500 -135.3667 292° West 500 575 38,000  Level Vancouver Center
09:59PM 52.0000 -135.5667 90° East 500 575 38,000  Level Vancouver Center
10:00PM 52.0000 -135.4833 285° West 495 570 38,000  Level Oakland Oceanic (ODAPS)
10:01PM 52.0833 -135.9833 96° East 500 575 38,000  Level Vancouver Center
10:02PM 52.0667 -135.7167 286° West 495 570 38,000  Level Oakland Oceanic (ODAPS)
10:03PM 52.1833 -136.4000 299° West 500 575 38,000  Level Vancouver Center
10:04PM 52.2500 -136.6000 283° West 510 587 38,000  Level Vancouver Center
10:05PM 52.2833 -136.8333 294° West 490 564 38,000  Level Vancouver Center
10:06PM 52.3333 -137.0167 290° West 500 575 38,000  Level Vancouver Center
10:07PM 52.4000 -137.3167 292° West 470 541 38,000  Level Vancouver Center
10:08PM 52.4500 -137.5167 284° West 490 564 38,000  Level Vancouver Center
10:09PM 52.4833 -137.7333 292° West 490 564 38,000  Level Vancouver Center
10:10PM 52.5333 -137.9333 291° West 490 564 38,000  Level Vancouver Center
10:11PM 52.5833 -138.1500 285° West 490 564 38,000  Level Vancouver Center
10:12PM 52.6167 -138.3500 294° West 490 564 38,000  Level Vancouver Center
10:13PM 52.6667 -138.5333 291° West 490 564 38,000  Level Vancouver Center
10:22PM 53.0000 -140.0000 293° West 475 547 38,000  Level Oakland Oceanic (ODAPS)
10:26PM 53.2500 -141.0167 292° West 488 562 38,000  Level Oakland Oceanic (ODAPS)
10:53PM 54.4667 -146.7667 287° West 486 559 38,000  Level Oakland Oceanic (ODAPS)
11:08PM 55.0000 -150.0000 295° West 485 558 38,000  Level Oakland Oceanic (ODAPS)
11:09PM 55.1167 -150.4500 294° West 485 558 38,000  Level Oakland Oceanic (ODAPS)
11:20PM 55.6333 -152.6333 291° West 483 556 38,000  Level Oakland Oceanic (ODAPS)
11:29PM 56.1000 -154.8667 290° West 460 529 38,000  Level Anchorage Center
11:30PM 56.1500 -155.1167 284° West 490 564 38,000  Level Anchorage Center
11:31PM 56.1833 -155.3500 293° West 490 564 38,000  Level Anchorage Center
11:32PM 56.2333 -155.5667 291° West 480 552 38,000  Level Anchorage Center
11:33PM 56.2833 -155.8000 285° West 480 552 38,000  Level Anchorage Center
11:34PM 56.3167 -156.0333 288° West 480 552 38,000  Level Anchorage Center
11:35PM 56.3500 -156.2167 291° West 480 552 38,000  Level Anchorage Center
11:35PM 56.4000 -156.4500 285° West 480 552 38,000  Level Anchorage Center
11:36PM 56.4333 -156.6833 291° West 480 552 38,000  Level Anchorage Center
11:38PM 56.4833 -156.9167 286° West 480 552 38,000  Level Anchorage Center
11:39PM 56.5167 -157.1333 291° West 470 541 38,000  Level Anchorage Center
11:40PM 56.5667 -157.3667 285° West 480 552 38,000  Level Anchorage Center
11:41PM 56.6000 -157.6000 291° West 470 541 38,000  Level Anchorage Center
11:42PM 56.6500 -157.8333 283° West 470 541 38,000  Level Anchorage Center
11:43PM 56.6833 -158.1000 291° West 470 541 38,000  Level Anchorage Center
11:44PM 56.7333 -158.3333 285° West 470 541 38,000  Level Anchorage Center
11:45PM 56.7667 -158.5667 285° West 470 541 38,000  Level Anchorage Center
11:46PM 56.8000 -158.8000 285° West 470 541 38,000  Level Anchorage Center
11:47PM 56.8333 -159.0333 286° West 460 529 38,000  Level Anchorage Center
11:48PM 56.8667 -159.2500 290° West 460 529 38,000  Level Anchorage Center
11:49PM 56.9167 -159.5000 286° West 470 541 38,000  Level Anchorage Center
11:50PM 56.9500 -159.7167 285° West 470 541 38,000  Level Anchorage Center
11:51PM 56.9833 -159.9500 283° West 460 529 38,000  Level Anchorage Center
11:52PM 57.0167 -160.2167 285° West 480 552 38,000  Level Anchorage Center
11:53PM 57.0500 -160.4500 285° West 460 529 38,000  Level Anchorage Center
11:54PM 57.0833 -160.6833 285° West 460 529 38,000  Level Anchorage Center
11:55PM 57.1167 -160.9167 285° West 470 541 38,000  Level Anchorage Center
11:56PM 57.1500 -161.1500 278° West 470 541 38,000  Level Anchorage Center
11:57PM 57.1667 -161.3833 285° West 460 529 38,000 360 Level Anchorage Center
11:58PM 57.2000 -161.6167 284° West 470 541 38,800 960 Climbing Anchorage Center
11:59PM 57.2333 -161.8667 282° West 470 541 40,000 660 Climbing Anchorage Center
12:00AM 57.2500 -162.0167 278° West 470 541 40,000  Level Anchorage Center
12:01AM 57.2667 -162.2500 285° West 470 541 40,000  Level Anchorage Center
12:02AM 57.3000 -162.4833 285° West 470 541 40,000  Level Anchorage Center
12:03AM 57.3333 -162.7167 277° West 470 541 40,000  Level Anchorage Center
12:04AM 57.3500 -162.9667 285° West 470 541 40,000  Level Anchorage Center
12:05AM 57.3833 -163.2000 278° West 460 529 40,000  Level Anchorage Center
12:06AM 57.4000 -163.4333 280° West 470 541 40,000  Level Anchorage Center
12:07AM 57.4333 -163.7833 282° West 470 541 40,000  Level Anchorage Center
12:08AM 57.4500 -163.9333 281° West 470 541 40,000  Level Anchorage Center
12:10AM 57.5000 -164.4167 278° West 470 541 40,000  Level Anchorage Center
12:11AM 57.5167 -164.6500 284° West 480 552 40,000  Level Anchorage Center
12:12AM 57.5500 -164.9000 278° West 470 541 40,000  Level Anchorage Center
12:13AM 57.5667 -165.1333 277° West 460 529 40,000  Level Anchorage Center
12:14AM 57.5833 -165.3833 285° West 470 541 40,000  Level Anchorage Center
12:15AM 57.6167 -165.6167 277° West 470 541 40,000  Level Anchorage Center
12:16AM 57.6333 -165.8667 278° West 470 541 40,000  Level Anchorage Center
12:17AM 57.6500 -166.1000 277° West 470 541 40,000  Level Anchorage Center
12:18AM 57.6667 -166.3500 284° West 470 541 40,000  Level Anchorage Center
12:19AM 57.7000 -166.6000 278° West 470 541 40,000  Level Anchorage Center
12:20AM 57.7167 -166.8333 277° West 470 541 40,000  Level Anchorage Center
12:21AM 57.7333 -167.0833 277° West 460 529 40,000  Level Anchorage Center
12:22AM 57.7500 -167.3333 278° West 470 541 40,000  Level Anchorage Center
12:23AM 57.7667 -167.5667 277° West 470 541 40,000  Level Anchorage Center
12:24AM 57.7833 -167.8167 263° West 470 541 40,000  Level Anchorage Center
12:25AM 57.7667 -168.0667 262° West 470 541 40,000  Level Anchorage Center
12:26AM 57.7500 -168.3000 263° West 470 541 40,000  Level Anchorage Center
12:27AM 57.7333 -168.5500 270° West 470 541 40,000  Level Anchorage Center
12:28AM 57.7333 -168.8000 262° West 470 541 40,000  Level Anchorage Center
12:29AM 57.7167 -169.0333 263° West 460 529 40,000  Level Anchorage Center
12:30AM 57.7000 -169.2833 262° West 460 529 40,000  Level Anchorage Center
12:31AM 57.6833 -169.5167 262° West 460 529 40,000  Level Anchorage Center
12:32AM 57.6667 -169.7500 262° West 450 518 40,000  Level Anchorage Center
12:33AM 57.6500 -169.9833 262° West 450 518 40,000  Level Anchorage Center
12:34AM 57.6333 -170.2167 262° West 450 518 40,000  Level Anchorage Center
12:35AM 57.6167 -170.4500 263° West 450 518 40,000  Level Anchorage Center
12:36AM 57.6000 -170.6833 263° West 450 518 40,000  Level Anchorage Center
12:37AM 57.5833 -170.9167 263° West 460 529 40,000  Level Anchorage Center
12:38AM 57.5667 -171.1500 255° West 450 518 40,000  Level Anchorage Center
12:39AM 57.5333 -171.3833 263° West 460 529 40,000  Level Anchorage Center
12:40AM 57.5167 -171.6333 263° West 470 541 40,000  Level Anchorage Center
12:41AM 57.5000 -171.8667 263° West 460 529 40,000  Level Anchorage Center
12:42AM 57.4833 -172.1000 263° West 460 529 40,000  Level Anchorage Center
12:43AM 57.4667 -172.3333 255° West 450 518 40,000  Level Anchorage Center
12:44AM 57.4333 -172.5667 263° West 450 518 40,000  Level Anchorage Center
12:45AM 57.4167 -172.8000 255° West 460 529 40,000  Level Anchorage Center
12:46AM 57.3833 -173.0333 263° West 450 518 40,000  Level Anchorage Center
12:47AM 57.3667 -173.2667 263° West 450 518 40,000  Level Anchorage Center
12:48AM 57.3500 -173.5000 254° West 450 518 40,000  Level Anchorage Center
12:49AM 57.3167 -173.7167 263° West 440 506 40,000  Level Anchorage Center
12:50AM 57.3000 -173.9500 255° West 450 518 40,000  Level Anchorage Center
12:51AM 57.2667 -174.1833 263° West 450 518 40,000  Level Anchorage Center
12:52AM 57.2500 -174.4167 262° West 450 518 40,000  Level Anchorage Center
12:53AM 57.2333 -174.6333 257° West 450 518 40,000  Level Anchorage Center
01:02AM 56.9833 -176.5667 257° West 464 534 40,000  Level Anchorage Center
01:09AM 56.7500 -178.2667 256° West 464 534 40,000  Level Anchorage Center
01:30AM 55.9667 176.9000 249° West 470 541 40,000  Level Anchorage Center
01:31AM 55.9167 176.6667 254° West 460 529 40,000  Level Anchorage Center
01:32AM 55.8833 176.4667 256° West 480 552 40,000  Level Anchorage Center
01:33AM 55.8500 176.2333 249° West 450 518 40,000  Level Anchorage Center
01:34AM 55.8000 176.0000 252° West 450 518 40,000  Level Anchorage Center
01:35AM 55.7667 175.8167 249° West 460 529 40,000  Level Anchorage Center
01:36AM 55.7167 175.5833 254° West 460 529 40,000  Level Anchorage Center
01:37AM 55.6833 175.3833 249° West 470 541 40,000  Level Anchorage Center
01:38AM 55.6333 175.1500 244° Southwest 460 529 40,000  Level Anchorage Center
01:39AM 55.5833 174.9667 249° West 460 529 40,000  Level Anchorage Center
01:40AM 55.5333 174.7333 252° West 470 541 40,000  Level Anchorage Center
01:41AM 55.5000 174.5500 249° West 460 529 40,000  Level Anchorage Center
01:42AM 55.4500 174.3167 249° West 460 529 40,000  Level Anchorage Center
01:43AM 55.4000 174.0833 252° West 460 529 40,000  Level Anchorage Center
01:44AM 55.3667 173.9000 249° West 460 529 40,000  Level Anchorage Center
01:45AM 55.3167 173.6667 242° Southwest 460 529 40,000  Level Anchorage Center
01:46AM 55.2667 173.5000 249° West 460 529 40,000  Level Anchorage Center
01:47AM 55.2167 173.2667 252° West 460 529 40,000  Level Anchorage Center
01:48AM 55.1833 173.0833 250° West 460 529 40,000  Level Anchorage Center
01:49AM 55.1333 172.8500 242° Southwest 460 529 40,000  Level Anchorage Center
01:50AM 55.0833 172.6833 250° West 450 518 40,000  Level Anchorage Center
01:51AM 55.0333 172.4500 250° West 460 529 40,000  Level Anchorage Center
01:52AM 54.9833 172.2167 245° Southwest 480 552 40,000  Level Anchorage Center
01:53AM 54.9333 172.0333 242° Southwest 460 529 40,000  Level Anchorage Center
01:54AM 54.8667 171.8167 232° Southwest 460 529 40,000  Level Anchorage Center
01:55AM 54.8000 171.6667 234° Southwest 450 518 40,000  Level Anchorage Center
01:56AM 54.7167 171.4667 233° Southwest 470 541 40,000  Level Anchorage Center
01:57AM 54.6500 171.3167 234° Southwest 470 541 40,000  Level Anchorage Center
01:58AM 54.5667 171.1167 234° Southwest 470 541 40,000  Level Anchorage Center
01:59AM 54.4833 170.9167 229° Southwest 470 541 40,000  Level Anchorage Center
02:00AM 54.4000 170.7500 235° Southwest 490 564 40,000  Level Anchorage Center
02:01AM 54.3167 170.5500 240° Southwest 470 541 40,000  Level Anchorage Center
02:02AM 54.2667 170.4000 230° Southwest 470 541 40,000  Level Anchorage Center
02:03AM 54.1667 170.2000 233° Southwest 470 541 40,000  Level Anchorage Center
02:04AM 54.1000 170.0500 235° Southwest 480 552 40,000  Level Anchorage Center
02:05AM 54.0167 169.8500 233° Southwest 480 552 40,000  Level Anchorage Center
02:06AM 53.9500 169.7000 235° Southwest 460 529 40,000  Level Anchorage Center
02:07AM 53.8667 169.5000 232° Southwest 480 552 40,000  Level Anchorage Center
02:08AM 53.7833 169.3167 233° Southwest 460 529 40,000  Level Anchorage Center
02:09AM 53.7167 169.1667 241° Southwest 470 541 40,000  Level Anchorage Center
02:10AM 53.6500 168.9667 243° Southwest 460 529 40,000  Level Anchorage Center
02:11AM 53.6000 168.8000 235° Southwest 460 529 40,000  Level Anchorage Center
02:12AM 53.5167 168.6000 241° Southwest 450 518 40,000  Level Anchorage Center
02:13AM 53.4667 168.4500 249° West 440 506 40,000  Level Anchorage Center
02:15AM 53.4167 168.2333 239° Southwest 449 517 40,000  Level Anchorage Center
02:29AM 52.5000 165.7667 238° Southwest 455 524 40,000  Level Anchorage Center
02:42AM 51.6500 163.6500 236° Southwest 457 526 40,000  Level Anchorage Center
02:55AM 50.6167 161.2667 234° Southwest 459 528 40,000  Level Anchorage Center
03:03AM 49.9912 159.9201 233° Southwest 459 528 40,000  Level FlightAware Transoceanic
03:04AM 49.9156 159.7618 233° Southwest 459 528 40,000  Level FlightAware Transoceanic
03:05AM 49.8397 159.6040 233° Southwest 459 528 40,000  Level FlightAware Transoceanic
03:06AM 49.7637 159.4467 233° Southwest 459 528 40,000  Level FlightAware Transoceanic
03:07AM 49.6884 159.2922 233° Southwest 459 528 40,000  Level FlightAware Transoceanic
03:08AM 49.6145 159.1416 233° Southwest 459 528 40,000  Level FlightAware Transoceanic
03:09AM 49.5404 158.9916 233° Southwest 459 528 40,000  Level FlightAware Transoceanic
03:10AM 49.4661 158.8420 233° Southwest 459 528 40,000  Level FlightAware Transoceanic
03:11AM 49.3917 158.6928 232° Southwest 459 528 40,000  Level FlightAware Transoceanic
03:12AM 49.3170 158.5441 232° Southwest 459 528 40,000  Level FlightAware Transoceanic
03:13AM 49.2421 158.3958 232° Southwest 459 528 40,000  Level FlightAware Transoceanic
03:14AM 49.1671 158.2480 232° Southwest 459 528 40,000  Level FlightAware Transoceanic
03:15AM 49.0919 158.1006 232° Southwest 459 528 40,000  Level FlightAware Transoceanic
03:16AM 49.0164 157.9537 232° Southwest 459 528 40,000  Level FlightAware Transoceanic
03:17AM 48.9408 157.8072 232° Southwest 459 528 40,000  Level FlightAware Transoceanic
03:18AM 48.8651 157.6612 232° Southwest 459 528 40,000  Level FlightAware Transoceanic
03:19AM 48.7891 157.5156 232° Southwest 459 528 40,000  Level FlightAware Transoceanic
03:20AM 48.7129 157.3705 231° Southwest 459 528 40,000  Level FlightAware Transoceanic
03:21AM 48.6366 157.2258 231° Southwest 459 528 40,000  Level FlightAware Transoceanic
03:22AM 48.5601 157.0815 231° Southwest 459 528 40,000  Level FlightAware Transoceanic
03:23AM 48.4834 156.9377 231° Southwest 459 528 40,000  Level FlightAware Transoceanic
03:24AM 48.4065 156.7943 231° Southwest 459 528 40,000  Level FlightAware Transoceanic
03:25AM 48.3294 156.6513 231° Southwest 459 528 40,000  Level FlightAware Transoceanic
03:26AM 48.2522 156.5088 231° Southwest 459 528 40,000  Level FlightAware Transoceanic
03:27AM 48.1748 156.3667 231° Southwest 459 528 40,000  Level FlightAware Transoceanic
03:28AM 48.0972 156.2250 231° Southwest 459 528 40,000  Level FlightAware Transoceanic
03:29AM 48.0195 156.0837 230° Southwest 459 528 40,000  Level FlightAware Transoceanic
03:30AM 47.9415 155.9429 230° Southwest 459 528 40,000  Level FlightAware Transoceanic
03:31AM 47.8634 155.8025 230° Southwest 459 528 40,000  Level FlightAware Transoceanic
03:32AM 47.7852 155.6625 230° Southwest 459 528 40,000  Level FlightAware Transoceanic
03:33AM 47.7067 155.5230 230° Southwest 459 528 40,000  Level FlightAware Transoceanic
03:34AM 47.6281 155.3839 230° Southwest 459 528 40,000  Level FlightAware Transoceanic
03:35AM 47.5494 155.2451 230° Southwest 459 528 40,000  Level FlightAware Transoceanic
03:36AM 47.4704 155.1068 230° Southwest 459 528 40,000  Level FlightAware Transoceanic
03:37AM 47.3913 154.9690 230° Southwest 459 528 40,000  Level FlightAware Transoceanic
03:38AM 47.3120 154.8315 230° Southwest 459 528 40,000  Level FlightAware Transoceanic
03:39AM 47.2326 154.6944 229° Southwest 459 528 40,000  Level FlightAware Transoceanic
03:40AM 47.1530 154.5578 229° Southwest 459 528 40,000  Level FlightAware Transoceanic
03:41AM 47.0732 154.4216 229° Southwest 459 528 40,000  Level FlightAware Transoceanic
03:42AM 46.9933 154.2857 229° Southwest 459 528 40,000  Level FlightAware Transoceanic
03:43AM 46.9132 154.1503 229° Southwest 459 528 40,000  Level FlightAware Transoceanic
03:44AM 46.8330 154.0153 229° Southwest 459 528 40,000  Level FlightAware Transoceanic
03:45AM 46.7526 153.8807 229° Southwest 459 528 40,000  Level FlightAware Transoceanic
03:46AM 46.6720 153.7464 229° Southwest 459 528 40,000  Level FlightAware Transoceanic
03:47AM 46.5913 153.6126 229° Southwest 459 528 40,000  Level FlightAware Transoceanic
03:48AM 46.5104 153.4792 229° Southwest 459 528 40,000  Level FlightAware Transoceanic
03:49AM 46.4294 153.3462 228° Southwest 459 528 40,000  Level FlightAware Transoceanic
03:50AM 46.3482 153.2136 228° Southwest 459 528 40,000  Level FlightAware Transoceanic
03:51AM 46.2669 153.0813 230° Southwest 459 528 40,000  Level FlightAware Transoceanic
03:52AM 46.1860 152.9420 230° Southwest  Level FlightAware Approximate
03:53AM 46.1048 152.8030 230° Southwest  Level FlightAware Approximate
03:54AM 46.0236 152.6645 230° Southwest  Level FlightAware Approximate
03:55AM 45.9421 152.5263 229° Southwest  Level FlightAware Approximate
03:56AM 45.8597 152.3896 229° Southwest  Level FlightAware Approximate
03:57AM 45.7771 152.2533 229° Southwest  Level FlightAware Approximate
03:58AM 45.6944 152.1173 229° Southwest  Level FlightAware Approximate
03:59AM 45.6115 151.9818 229° Southwest  Level FlightAware Approximate
04:00AM 45.5284 151.8467 229° Southwest  Level FlightAware Approximate
04:01AM 45.4452 151.7119 229° Southwest  Level FlightAware Approximate
04:02AM 45.3618 151.5776 228° Southwest  Level FlightAware Approximate
04:03AM 45.2783 151.4437 228° Southwest  Level FlightAware Approximate
04:04AM 45.1946 151.3101 228° Southwest  Level FlightAware Approximate
04:05AM 45.1107 151.1770 228° Southwest  Level FlightAware Approximate
04:06AM 45.0267 151.0442 228° Southwest  Level FlightAware Approximate
04:07AM 44.9426 150.9119 228° Southwest  Level FlightAware Approximate
04:08AM 44.8582 150.7799 228° Southwest  Level FlightAware Approximate
04:09AM 44.7738 150.6483 228° Southwest  Level FlightAware Approximate
04:10AM 44.6891 150.5171 228° Southwest  Level FlightAware Approximate
04:11AM 44.6043 150.3863 228° Southwest  Level FlightAware Approximate
04:12AM 44.5194 150.2559 228° Southwest  Level FlightAware Approximate
04:13AM 44.4343 150.1259 227° Southwest  Level FlightAware Approximate
04:14AM 44.3491 149.9962 227° Southwest  Level FlightAware Approximate
04:15AM 44.2637 149.8669 227° Southwest  Level FlightAware Approximate
04:16AM 44.1782 149.7380 227° Southwest  Level FlightAware Approximate
04:17AM 44.0926 149.6095 227° Southwest  Level FlightAware Approximate
04:18AM 44.0068 149.4813 227° Southwest  Level FlightAware Approximate
04:19AM 43.9208 149.3535 227° Southwest  Level FlightAware Approximate
04:20AM 43.8347 149.2261 227° Southwest  Level FlightAware Approximate
04:21AM 43.7485 149.0990 227° Southwest  Level FlightAware Approximate
04:22AM 43.6621 148.9723 227° Southwest  Level FlightAware Approximate
04:23AM 43.5756 148.8460 227° Southwest  Level FlightAware Approximate
04:24AM 43.4890 148.7200 226° Southwest  Level FlightAware Approximate
04:25AM 43.4022 148.5944 226° Southwest  Level FlightAware Approximate
04:26AM 43.3153 148.4692 226° Southwest  Level FlightAware Approximate
04:27AM 43.2282 148.3443 226° Southwest  Level FlightAware Approximate
04:28AM 43.1410 148.2197 226° Southwest  Level FlightAware Approximate
04:29AM 43.0537 148.0956 226° Southwest  Level FlightAware Approximate
04:30AM 42.9662 147.9717 226° Southwest  Level FlightAware Approximate
04:31AM 42.8786 147.8483 226° Southwest  Level FlightAware Approximate
04:32AM 42.7909 147.7251 226° Southwest  Level FlightAware Approximate
04:33AM 42.7030 147.6024 226° Southwest  Level FlightAware Approximate
04:34AM 42.6151 147.4799 226° Southwest  Level FlightAware Approximate
04:35AM 42.5269 147.3579 226° Southwest  Level FlightAware Approximate
04:36AM 42.4387 147.2361 225° Southwest  Level FlightAware Approximate
04:37AM 42.3503 147.1147 225° Southwest  Level FlightAware Approximate
04:38AM 42.2618 146.9937 225° Southwest  Level FlightAware Approximate
04:39AM 42.1732 146.8730 225° Southwest  Level FlightAware Approximate
04:40AM 42.0844 146.7526 225° Southwest  Level FlightAware Approximate
04:41AM 41.9955 146.6326 225° Southwest  Level FlightAware Approximate
04:42AM 41.9065 146.5129 225° Southwest  Level FlightAware Approximate
04:43AM 41.8174 146.3935 225° Southwest  Level FlightAware Approximate
04:44AM 41.7281 146.2745 225° Southwest  Level FlightAware Approximate
04:45AM 41.6387 146.1557 225° Southwest  Level FlightAware Approximate
04:46AM 41.5492 146.0374 225° Southwest  Level FlightAware Approximate
04:47AM 41.4596 145.9193 225° Southwest  Level FlightAware Approximate
04:48AM 41.3699 145.8016 224° Southwest  Level FlightAware Approximate
04:49AM 41.2800 145.6842 224° Southwest  Level FlightAware Approximate
04:50AM 41.1900 145.5671 224° Southwest  Level FlightAware Approximate
04:51AM 41.0999 145.4504 224° Southwest  Level FlightAware Approximate
04:52AM 41.0097 145.3339 224° Southwest  Level FlightAware Approximate
04:53AM 40.9194 145.2178 224° Southwest  Level FlightAware Approximate
04:54AM 40.8289 145.1020 224° Southwest  Level FlightAware Approximate
04:55AM 40.7384 144.9865 224° Southwest  Level FlightAware Approximate
04:56AM 40.6477 144.8714 224° Southwest  Level FlightAware Approximate
04:57AM 40.5569 144.7565 224° Southwest  Level FlightAware Approximate
04:58AM 40.4660 144.6420 224° Southwest  Level FlightAware Approximate
04:59AM 40.3750 144.5277 224° Southwest  Level FlightAware Approximate
05:00AM 40.2839 144.4138 224° Southwest  Level FlightAware Approximate
05:01AM 40.1926 144.3002 224° Southwest  Level FlightAware Approximate
05:02AM 40.1013 144.1869 223° Southwest  Level FlightAware Approximate
05:03AM 40.0098 144.0739 223° Southwest  Level FlightAware Approximate
05:04AM 39.9182 143.9612 219° Southwest  Level FlightAware Approximate
05:05AM 39.8198 143.8589 219° Southwest  Level FlightAware Approximate
05:06AM 39.7212 143.7570 218° Southwest  Level FlightAware Approximate
05:07AM 39.6226 143.6554 218° Southwest  Level FlightAware Approximate
05:08AM 39.5239 143.5540 218° Southwest  Level FlightAware Approximate
05:09AM 39.4251 143.4530 218° Southwest  Level FlightAware Approximate
05:10AM 39.3262 143.3522 218° Southwest  Level FlightAware Approximate
05:11AM 39.2272 143.2517 218° Southwest  Level FlightAware Approximate
05:12AM 39.1282 143.1515 218° Southwest  Level FlightAware Approximate
05:13AM 39.0290 143.0516 218° Southwest  Level FlightAware Approximate
05:14AM 38.9298 142.9520 218° Southwest  Level FlightAware Approximate
05:15AM 38.8304 142.8526 218° Southwest  Level FlightAware Approximate
05:16AM 38.7310 142.7535 218° Southwest  Level FlightAware Approximate
05:17AM 38.6315 142.6547 218° Southwest  Level FlightAware Approximate
05:18AM 38.5320 142.5562 218° Southwest  Level FlightAware Approximate
05:19AM 38.4323 142.4579 218° Southwest  Level FlightAware Approximate
05:20AM 38.3326 142.3599 218° Southwest  Level FlightAware Approximate
05:21AM 38.2328 142.2622 218° Southwest  Level FlightAware Approximate
05:22AM 38.1329 142.1647 217° Southwest  Level FlightAware Approximate
05:23AM 38.0329 142.0675 217° Southwest  Level FlightAware Approximate
05:24AM 37.9328 141.9706 217° Southwest  Level FlightAware Approximate
05:25AM 37.8327 141.8739 217° Southwest  Level FlightAware Approximate
05:26AM 37.7325 141.7776 217° Southwest  Level FlightAware Approximate
05:27AM 37.6322 141.6814 217° Southwest  Level FlightAware Approximate
05:28AM 37.5318 141.5856 217° Southwest  Level FlightAware Approximate
05:29AM 37.4314 141.4899 217° Southwest  Level FlightAware Approximate
05:30AM 37.3308 141.3946 217° Southwest  Level FlightAware Approximate
05:31AM 37.2302 141.2995 217° Southwest  Level FlightAware Approximate
05:32AM 37.1296 141.2046 217° Southwest  Level FlightAware Approximate
05:33AM 37.0288 141.1100 217° Southwest  Level FlightAware Approximate
05:34AM 36.9280 141.0157 217° Southwest  Level FlightAware Approximate
05:35AM 36.8271 140.9216 217° Southwest  Level FlightAware Approximate
05:36AM 36.7261 140.8277 217° Southwest  Level FlightAware Approximate
05:37AM 36.6250 140.7341 217° Southwest  Level FlightAware Approximate
05:38AM 36.5239 140.6407 217° Southwest  Level FlightAware Approximate
05:39AM 36.4227 140.5476 216° Southwest  Level FlightAware Approximate
05:40AM 36.3215 140.4547 216° Southwest  Level FlightAware Approximate
05:41AM 36.2201 140.3621 216° Southwest  Level FlightAware Approximate
05:42AM 36.1187 140.2697 216° Southwest  Level FlightAware Approximate
05:43AM 36.0172 140.1775 216° Southwest  Level FlightAware Approximate
05:44AM 35.9157 140.0856 216° Southwest  Level FlightAware Approximate
05:45AM 35.8141 139.9939 239° Southwest  Level FlightAware Approximate
05:46AM 35.7538 139.8715 198° South  Level FlightAware Approximate
05:47AM 35.6340 139.8236 209° Southwest  Level FlightAware Approximate
05:48AM 35.5500 139.7667 78° East  Level FlightAware Approximate
05:49AM 35.5761 139.9180 15° North  Level Estimated
05:50AM 36.5293 140.2411 201° Southwest  Level FlightAware Approximate
05:51AM 36.4115 140.1858 201° Southwest  Level FlightAware Approximate
05:52AM 36.2937 140.1306 201° Southwest  Level FlightAware Approximate
05:53AM 36.1759 140.0755 201° Southwest  Level FlightAware Approximate
05:54AM 36.0581 140.0207 201° Southwest  Level FlightAware Approximate
05:55AM 35.9403 139.9660 201° Southwest  Level FlightAware Approximate
05:56AM 35.8224 139.9114 201° Southwest  Level FlightAware Approximate
05:57AM 35.7045 139.8571 203° Southwest  Level FlightAware Approximate
05:58AM 35.5892 139.7961 200° South  Level FlightAware Approximate
05:59AM 35.4708 139.7437 20° North  Level Estimated
06:00AM 35.5892 139.7961 200° South  Level Estimated
06:01AM 35.4708 139.7437 20° North  Level Estimated
06:02AM 35.5892 139.7961 211° Southwest  Level Estimated
06:03AM 35.5500 139.7667 78° East  Level FlightAware Approximate
06:04AM 35.5761 139.9180 258° West  Level Estimated
06:05AM 35.5500 139.7667 78° East  Level FlightAware Approximate
06:06AM 35.5761 139.9180 258° West  Level Estimated
06:07AM 35.5500 139.7667 78° East  Level FlightAware Approximate
06:08AM 35.5761 139.9180 258° West  Level Estimated
06:09AM 35.5500 139.7667 78° East  Level FlightAware Approximate
06:10AM 35.5761 139.9180 258° West  Level Estimated
06:11AM 35.5500 139.7667 78° East  Level FlightAware Approximate
06:12AM 35.5761 139.9180 258° West  Level Estimated
06:13AM 35.5500 139.7667 78° East  Level FlightAware Approximate
06:14AM 35.5761 139.9180 258° West  Level Estimated
06:15AM 35.5500 139.7667 78° East  Level FlightAware Approximate
06:16AM 35.5761 139.9180 258° West  Level Estimated
06:17AM 35.5500 139.7667 78° East  Level FlightAware Approximate
06:18AM 35.5761 139.9180 78° East  Level Estimated